Time;durP1;ratioP1;P1;durP2;ratioP2;P2;SDS_P1;SDS_P2;PMS_P1;PMS_P2;Temp;Humidity;BMP_temperature;BMP_pressure;BME280_temperature;BME280_humidity;BME280_pressure;Samples;Min_cycle;Max_cycle;Signal;HPM_P1;HPM_P2
2021/10/08 00:02:15;;;;;;;11.00;4.50;;;;;;;-0.79;71.22;100662.83;112534;1191;60854;-22
2021/10/08 00:04:44;;;;;;;22.10;5.70;;;;;;;-0.27;70.31;100667.09;112516;1190;74911;-22
2021/10/08 00:07:12;;;;;;;12.90;5.80;;;;;;;0.50;67.64;100670.95;112530;1190;75836;-22
2021/10/08 00:09:52;;;;;;;29.20;11.60;;;;;;;0.68;66.54;100674.28;112487;1191;72963;-22
2021/10/08 00:12:20;;;;;;;36.70;11.30;;;;;;;0.62;66.38;100674.89;112452;1193;61478;-22
2021/10/08 00:14:49;;;;;;;22.80;10.20;;;;;;;0.45;66.91;100671.88;112581;1190;60837;-22
2021/10/08 00:17:17;;;;;;;23.80;10.30;;;;;;;0.23;67.48;100670.63;112546;1190;75252;-22
2021/10/08 00:19:47;;;;;;;35.70;14.20;;;;;;;0.05;67.72;100669.81;112546;1190;75551;-22
2021/10/08 00:22:16;;;;;;;41.60;14.80;;;;;;;-0.06;67.59;100665.85;112465;1193;74085;-22
2021/10/08 00:24:44;;;;;;;48.40;17.90;;;;;;;-0.25;68.63;100660.93;112494;1192;62307;-24
2021/10/08 00:27:12;;;;;;;49.50;19.00;;;;;;;-0.41;69.54;100667.41;112550;1190;60762;-22
2021/10/08 00:29:41;;;;;;;52.80;18.30;;;;;;;-0.53;69.09;100668.23;112507;1190;74894;-22
2021/10/08 00:32:09;;;;;;;44.70;14.90;;;;;;;-0.69;70.80;100670.23;112537;1190;75789;-24
2021/10/08 00:34:38;;;;;;;29.60;11.20;;;;;;;-0.77;70.50;100672.87;112476;1191;73048;-22
2021/10/08 00:37:06;;;;;;;17.30;6.80;;;;;;;-0.82;70.80;100670.85;112508;1190;60793;-22
2021/10/08 00:39:34;;;;;;;26.30;8.10;;;;;;;-0.26;69.59;100666.41;112423;1190;60927;-22
2021/10/08 00:42:04;;;;;;;35.90;13.60;;;;;;;0.63;67.51;100672.14;112561;1190;74206;-23
2021/10/08 00:44:32;;;;;;;29.30;10.40;;;;;;;0.90;66.38;100672.77;112273;1193;75800;-22
2021/10/08 00:47:00;;;;;;;27.40;10.90;;;;;;;0.81;65.91;100674.95;112538;1194;73447;-22
2021/10/08 00:49:29;;;;;;;21.20;7.60;;;;;;;0.61;65.93;100671.13;112460;1191;60835;-23
2021/10/08 00:51:57;;;;;;;20.40;8.20;;;;;;;0.37;66.52;100676.25;112524;1190;61679;-23
2021/10/08 00:54:26;;;;;;;20.00;7.50;;;;;;;0.11;67.27;100673.33;112444;1192;74172;-23
2021/10/08 00:56:54;;;;;;;23.10;8.40;;;;;;;-0.13;67.93;100672.59;112564;1190;74627;-23
2021/10/08 00:59:27;;;;;;;21.60;10.20;;;;;;;-0.33;69.26;100675.36;112449;1193;73145;-23
2021/10/08 01:01:55;;;;;;;17.90;11.10;;;;;;;-0.51;69.73;100678.79;112413;1192;60779;-23
2021/10/08 01:04:24;;;;;;;20.60;10.80;;;;;;;-0.67;69.86;100675.52;112524;1190;61380;-23
2021/10/08 01:06:53;;;;;;;12.40;6.80;;;;;;;-0.78;70.23;100677.14;112566;1190;75133;-22
2021/10/08 01:09:21;;;;;;;12.50;6.30;;;;;;;-0.88;70.87;100679.79;112500;1190;74993;-23
2021/10/08 01:11:50;;;;;;;17.60;8.70;;;;;;;-0.97;70.79;100676.29;112595;1190;73698;-23
2021/10/08 01:14:21;;;;;;;11.40;4.30;;;;;;;-1.04;71.75;100676.48;112408;1192;60977;-23
2021/10/08 01:16:52;;;;;;;16.60;7.40;;;;;;;-0.48;71.37;100674.13;112496;1190;62337;-22
2021/10/08 01:19:20;;;;;;;13.90;7.00;;;;;;;0.25;68.61;100680.00;112497;1192;73091;-22
2021/10/08 01:21:53;;;;;;;20.80;7.20;;;;;;;0.53;67.61;100683.20;112534;1190;75689;-22
2021/10/08 01:24:22;;;;;;;16.70;7.60;;;;;;;0.42;67.23;100685.92;112431;1193;73766;-22
2021/10/08 01:26:52;;;;;;;17.90;5.60;;;;;;;0.25;67.90;100684.42;112535;1190;60921;-22
2021/10/08 01:29:23;;;;;;;15.10;6.60;;;;;;;0.05;68.40;100678.86;112531;1190;60793;-22
2021/10/08 01:31:51;;;;;;;18.90;8.50;;;;;;;-0.18;69.28;100684.42;112263;1193;75345;-22
2021/10/08 01:34:20;;;;;;;22.60;9.30;;;;;;;-0.37;70.03;100683.59;112492;1190;75584;-22
2021/10/08 01:36:53;;;;;;;21.20;7.20;;;;;;;-0.53;70.30;100688.36;112549;1190;73140;-22
2021/10/08 01:39:22;;;;;;;24.80;10.20;;;;;;;-0.63;70.39;100686.91;112475;1193;60799;-22
2021/10/08 01:41:51;;;;;;;16.40;7.90;;;;;;;-0.72;70.69;100688.70;112550;1190;61297;-22
2021/10/08 01:44:22;;;;;;;12.40;5.50;;;;;;;-0.83;70.95;100688.09;112487;1190;75338;-22
2021/10/08 01:46:51;;;;;;;13.00;6.50;;;;;;;-0.92;70.98;100684.77;112505;1190;74432;-22
2021/10/08 01:49:19;;;;;;;6.90;4.00;;;;;;;-0.97;71.85;100689.07;112542;1183;72628;-22
2021/10/08 01:51:47;;;;;;;12.80;5.10;;;;;;;-0.39;71.37;100688.88;112456;1191;61518;-22
2021/10/08 01:54:16;;;;;;;12.00;6.50;;;;;;;0.40;68.76;100691.77;112548;1191;61419;-21
2021/10/08 01:56:52;;;;;;;11.90;4.70;;;;;;;0.61;67.71;100686.20;112519;1190;75180;-21
2021/10/08 01:59:21;;;;;;;14.60;4.80;;;;;;;0.49;67.32;100688.55;112513;1190;74426;-22
2021/10/08 02:01:50;;;;;;;11.30;5.10;;;;;;;0.26;68.02;100691.42;112566;1190;72553;-22
2021/10/08 02:04:19;;;;;;;14.70;6.20;;;;;;;-0.02;69.11;100686.98;112472;1190;60827;-24
2021/10/08 02:06:47;;;;;;;11.50;5.10;;;;;;;-0.27;69.82;100689.97;112434;1178;61255;-24
2021/10/08 02:09:16;;;;;;;11.20;5.40;;;;;;;-0.52;71.18;100692.62;112559;1190;74501;-23
2021/10/08 02:11:45;;;;;;;17.20;6.40;;;;;;;-0.64;71.37;100694.59;112481;1190;72959;-24
2021/10/08 02:14:15;;;;;;;16.10;6.70;;;;;;;-0.77;71.94;100696.92;112505;1191;73165;-24
2021/10/08 02:16:46;;;;;;;19.90;5.10;;;;;;;-0.90;72.23;100696.69;112469;1190;61013;-22
2021/10/08 02:19:15;;;;;;;10.50;4.20;;;;;;;-0.94;72.48;100698.08;112492;1190;60825;-23
2021/10/08 02:21:47;;;;;;;16.00;4.50;;;;;;;-0.37;71.35;100697.41;112507;1190;75006;-24
2021/10/08 02:24:17;;;;;;;9.60;5.00;;;;;;;0.40;69.02;100699.11;112292;1191;74668;-22
2021/10/08 02:26:48;;;;;;;9.30;4.40;;;;;;;0.53;67.98;100703.39;112542;1190;73808;-21
2021/10/08 02:29:25;;;;;;;12.00;5.90;;;;;;;0.31;68.53;100699.23;112534;1191;60838;-22
2021/10/08 02:31:53;;;;;;;8.60;4.90;;;;;;;0.19;68.71;100700.06;112416;1192;60784;-22
2021/10/08 02:34:22;;;;;;;10.20;5.30;;;;;;;-0.08;69.61;100698.48;112479;1192;75340;-22
2021/10/08 02:36:50;;;;;;;17.60;5.70;;;;;;;-0.28;70.09;100698.54;112462;1193;74690;-22
2021/10/08 02:39:19;;;;;;;10.50;5.90;;;;;;;-0.48;70.60;100697.86;112469;1193;73824;-22
2021/10/08 02:41:47;;;;;;;11.60;5.40;;;;;;;-0.62;70.17;100702.59;112526;1190;60777;-22
2021/10/08 02:44:16;;;;;;;8.10;4.20;;;;;;;-0.74;70.40;100704.91;112452;1192;60786;-23
2021/10/08 02:46:45;;;;;;;12.00;5.40;;;;;;;-0.89;71.19;100710.65;112496;1190;75184;-24
2021/10/08 02:49:21;;;;;;;7.00;3.90;;;;;;;-1.02;73.26;100709.90;112461;1190;74726;-24
2021/10/08 02:51:50;;;;;;;13.90;7.10;;;;;;;-0.46;71.62;100709.95;112473;1190;70007;-22
2021/10/08 02:54:19;;;;;;;20.10;11.60;;;;;;;0.42;69.53;100710.88;112498;1190;61779;-22
2021/10/08 02:56:47;;;;;;;29.30;13.90;;;;;;;0.61;68.33;100713.53;112517;1193;61749;-21
2021/10/08 02:59:16;;;;;;;21.90;11.70;;;;;;;0.29;69.11;100717.88;112507;1190;75158;-22
2021/10/08 03:01:45;;;;;;;18.70;9.70;;;;;;;0.10;69.95;100722.17;112492;1190;74679;-22
2021/10/08 03:04:15;;;;;;;16.30;7.60;;;;;;;-0.04;70.12;100725.42;112556;1190;73606;-24
2021/10/08 03:06:43;;;;;;;28.20;11.60;;;;;;;-0.22;70.65;100721.33;112522;1190;60828;-24
2021/10/08 03:09:12;;;;;;;21.80;10.60;;;;;;;-0.41;71.23;100727.83;112530;1190;62151;-24
2021/10/08 03:11:41;;;;;;;21.40;11.30;;;;;;;-0.56;71.58;100727.79;112573;1190;75067;-22
2021/10/08 03:14:10;;;;;;;19.90;9.80;;;;;;;-0.72;71.90;100727.23;112537;1193;75719;-22
2021/10/08 03:16:40;;;;;;;19.60;10.60;;;;;;;-0.88;72.90;100722.59;112542;1190;73784;-22
2021/10/08 03:19:09;;;;;;;28.60;18.00;;;;;;;-1.03;73.55;100725.77;112567;1190;61302;-22
2021/10/08 03:21:37;;;;;;;22.60;11.80;;;;;;;-1.13;73.88;100727.02;112533;1190;60757;-22
2021/10/08 03:24:06;;;;;;;43.60;22.60;;;;;;;-0.58;73.28;100725.23;112489;1191;74048;-22
2021/10/08 03:26:34;;;;;;;58.00;26.00;;;;;;;0.30;70.36;100729.30;112475;1191;75488;-22
2021/10/08 03:29:03;;;;;;;46.00;19.60;;;;;;;0.44;69.29;100732.20;112430;1191;73753;-22
2021/10/08 03:31:33;;;;;;;32.40;14.00;;;;;;;0.37;69.40;100736.21;112508;1190;60805;-22
2021/10/08 03:34:02;;;;;;;25.50;10.30;;;;;;;0.08;70.03;100735.52;112527;1192;61803;-22
2021/10/08 03:36:42;;;;;;;21.40;9.20;;;;;;;-0.13;70.69;100736.95;112489;1192;74256;-22
2021/10/08 03:39:14;;;;;;;20.80;10.60;;;;;;;-0.36;71.39;100741.61;112442;1192;75036;-22
2021/10/08 03:41:43;;;;;;;23.20;10.30;;;;;;;-0.55;71.36;100741.10;112320;1193;74394;-24
2021/10/08 03:44:12;;;;;;;26.90;16.20;;;;;;;-0.75;72.86;100741.60;112460;1190;60816;-23
2021/10/08 03:46:45;;;;;;;20.10;11.50;;;;;;;-0.92;73.46;100745.29;112423;1190;60867;-23
2021/10/08 03:49:15;;;;;;;25.90;12.60;;;;;;;-1.05;73.84;100742.64;112373;1190;75451;-22
2021/10/08 03:51:45;;;;;;;12.00;7.50;;;;;;;-1.15;74.57;100744.41;112470;1193;76195;-23
2021/10/08 03:54:14;;;;;;;24.20;11.20;;;;;;;-0.61;73.70;100744.88;112436;1192;73796;-23
2021/10/08 03:56:43;;;;;;;36.60;17.80;;;;;;;0.26;71.11;100744.73;112437;1192;60811;-23
2021/10/08 03:59:12;;;;;;;22.10;10.90;;;;;;;0.41;69.94;100746.09;112455;1178;61615;-22
2021/10/08 04:01:45;;;;;;;13.10;8.70;;;;;;;0.28;69.92;100745.38;112393;1191;72126;-23
2021/10/08 04:04:14;;;;;;;16.20;8.10;;;;;;;0.09;70.24;100751.92;112450;1190;74438;-23
2021/10/08 04:06:43;;;;;;;17.10;8.10;;;;;;;-0.16;71.09;100752.86;112473;1190;73352;-22
2021/10/08 04:09:12;;;;;;;16.50;9.10;;;;;;;-0.43;72.39;100755.49;112414;1190;60825;-22
2021/10/08 04:11:43;;;;;;;20.00;11.20;;;;;;;-0.65;73.21;100757.72;112387;1190;60863;-22
2021/10/08 04:14:11;;;;;;;34.80;15.40;;;;;;;-0.81;73.46;100759.03;112496;1190;74327;-22
2021/10/08 04:16:41;;;;;;;95.30;41.70;;;;;;;-0.94;73.42;100761.68;112435;1190;73893;-22
2021/10/08 04:19:09;;;;;;;73.70;27.60;;;;;;;-1.07;73.69;100761.58;112434;1193;73089;-22
2021/10/08 04:21:38;;;;;;;41.00;15.30;;;;;;;-1.16;74.56;100759.41;112449;1190;60889;-21
2021/10/08 04:24:07;;;;;;;42.20;17.60;;;;;;;-0.61;74.04;100760.74;112515;1190;60742;-22
2021/10/08 04:26:35;;;;;;;35.70;17.50;;;;;;;0.24;71.42;100758.59;112434;1192;75203;-21
2021/10/08 04:29:05;;;;;;;38.00;17.40;;;;;;;0.44;70.23;100763.98;112438;1190;74723;-22
2021/10/08 04:31:35;;;;;;;36.70;15.20;;;;;;;0.28;70.31;100764.35;112409;1193;73865;-21
2021/10/08 04:34:03;;;;;;;24.30;11.10;;;;;;;0.06;70.66;100764.92;112402;1192;60833;-22
2021/10/08 04:36:32;;;;;;;24.80;11.80;;;;;;;-0.19;71.79;100765.86;112376;1193;60911;-24
2021/10/08 04:39:01;;;;;;;26.60;11.20;;;;;;;-0.39;72.34;100764.16;112500;1190;75449;-21
2021/10/08 04:41:29;;;;;;;36.70;15.60;;;;;;;-0.60;73.56;100763.83;112519;1190;75647;-23
2021/10/08 04:43:58;;;;;;;33.30;18.90;;;;;;;-0.83;74.97;100769.27;112432;1190;72955;-26
2021/10/08 04:46:28;;;;;;;36.00;17.90;;;;;;;-1.00;75.89;100768.02;112424;1190;60843;-24
2021/10/08 04:48:56;;;;;;;28.40;11.20;;;;;;;-1.12;76.91;100768.42;112530;1190;61441;-25
2021/10/08 04:51:26;;;;;;;26.20;12.70;;;;;;;-0.68;75.79;100771.38;112399;1193;74344;-23
2021/10/08 04:53:55;;;;;;;34.30;16.30;;;;;;;-0.07;73.14;100767.45;112503;1190;74749;-22
2021/10/08 04:56:23;;;;;;;30.40;15.00;;;;;;;0.03;72.66;100768.71;112455;1192;73942;-23
2021/10/08 04:58:52;;;;;;;34.60;18.20;;;;;;;0.00;72.74;100773.87;112472;1191;61015;-22
2021/10/08 05:01:20;;;;;;;26.60;14.50;;;;;;;-0.20;73.87;100778.85;112495;1190;61641;-22
2021/10/08 05:03:49;;;;;;;24.90;13.70;;;;;;;-0.23;74.03;100774.10;112455;1191;73782;-22
2021/10/08 05:06:18;;;;;;;29.10;13.50;;;;;;;-0.39;74.47;100775.42;112470;1191;75509;-22
2021/10/08 05:08:52;;;;;;;39.10;16.40;;;;;;;-0.47;74.93;100778.23;112520;1190;73044;-24
2021/10/08 05:11:22;;;;;;;16.10;9.10;;;;;;;-0.42;75.15;100784.33;112499;1190;60786;-22
2021/10/08 05:13:51;;;;;;;22.50;12.00;;;;;;;0.23;73.14;100784.21;112553;1190;60758;-22
2021/10/08 05:16:19;;;;;;;23.50;12.30;;;;;;;0.85;70.49;100791.68;112545;1190;74839;-22
2021/10/08 05:18:48;;;;;;;23.00;10.70;;;;;;;1.12;69.11;100794.73;112544;1190;74619;-22
2021/10/08 05:21:20;;;;;;;26.30;11.10;;;;;;;1.11;69.50;100797.49;112537;1190;73391;-22
2021/10/08 05:23:49;;;;;;;20.20;10.00;;;;;;;1.08;69.21;100799.23;112456;1190;60824;-22
2021/10/08 05:26:17;;;;;;;20.00;11.20;;;;;;;0.95;69.70;100804.54;112452;1190;60917;-22
2021/10/08 05:28:46;;;;;;;21.60;12.20;;;;;;;0.83;70.26;100811.73;112472;1190;74166;-22
2021/10/08 05:31:14;;;;;;;18.40;10.00;;;;;;;0.65;71.08;100812.29;112400;1191;75689;-22
2021/10/08 05:33:44;;;;;;;33.50;14.70;;;;;;;0.54;72.01;100816.00;112518;1190;73839;-23
2021/10/08 05:36:13;;;;;;;21.50;10.50;;;;;;;0.49;72.52;100814.00;112509;1190;60780;-22
2021/10/08 05:38:41;;;;;;;13.90;6.20;;;;;;;0.49;73.14;100815.71;112410;1192;60824;-22
2021/10/08 05:41:10;;;;;;;22.20;8.70;;;;;;;1.15;71.64;100816.57;112549;1190;73778;-22
2021/10/08 05:43:39;;;;;;;106.60;24.50;;;;;;;1.99;69.29;100819.55;112457;1190;74824;-22
2021/10/08 05:46:08;;;;;;;43.90;16.40;;;;;;;2.19;67.92;100818.86;112466;1193;73191;-22
2021/10/08 05:48:36;;;;;;;15.50;7.50;;;;;;;2.14;68.06;100819.99;112505;1190;60918;-22
2021/10/08 05:51:06;;;;;;;14.00;6.60;;;;;;;2.06;67.73;100823.73;112461;1190;61482;-22
2021/10/08 05:53:34;;;;;;;12.50;6.30;;;;;;;1.86;68.52;100825.77;112459;1190;75208;-22
2021/10/08 05:56:03;;;;;;;17.40;8.40;;;;;;;1.76;68.54;100822.34;112449;1190;74846;-22
2021/10/08 05:58:32;;;;;;;7.70;4.10;;;;;;;1.68;69.05;100822.82;112481;1192;72009;-22
2021/10/08 06:01:01;;;;;;;24.30;7.50;;;;;;;1.62;69.07;100823.77;112473;1192;60837;-22
2021/10/08 06:03:30;;;;;;;10.60;5.30;;;;;;;1.57;69.43;100823.85;112459;1190;60840;-22
2021/10/08 06:05:58;;;;;;;12.10;5.70;;;;;;;1.58;69.30;100825.19;112408;1190;73991;-22
2021/10/08 06:08:27;;;;;;;11.30;6.00;;;;;;;2.14;68.55;100826.47;112411;1190;75608;-22
2021/10/08 06:10:56;;;;;;;15.80;6.10;;;;;;;2.72;66.80;100827.62;112430;1193;74133;-22
2021/10/08 06:13:25;;;;;;;10.30;5.50;;;;;;;2.88;66.14;100830.21;112495;1190;60805;-23
2021/10/08 06:15:54;;;;;;;9.40;5.10;;;;;;;2.87;66.10;100830.23;112533;1190;60806;-22
2021/10/08 06:18:23;;;;;;;13.40;6.80;;;;;;;2.71;66.55;100833.83;112538;1190;72153;-22
2021/10/08 06:20:52;;;;;;;27.40;13.00;;;;;;;2.59;66.68;100835.60;112590;1190;76162;-22
2021/10/08 06:23:21;;;;;;;47.60;13.80;;;;;;;2.48;66.61;100836.98;112461;1191;72397;-22
2021/10/08 06:25:50;;;;;;;30.20;11.80;;;;;;;2.48;66.86;100839.58;112478;1193;61674;-23
2021/10/08 06:28:23;;;;;;;14.40;6.70;;;;;;;2.49;67.58;100837.67;112456;1193;61789;-22
2021/10/08 06:30:52;;;;;;;10.90;5.40;;;;;;;2.45;67.27;100835.86;112526;1190;74895;-22
2021/10/08 06:33:20;;;;;;;11.30;5.10;;;;;;;2.53;67.63;100839.31;112487;1190;74689;-22
2021/10/08 06:35:51;;;;;;;9.70;4.80;;;;;;;2.68;67.43;100839.19;112512;1190;74160;-22
2021/10/08 06:38:20;;;;;;;12.40;5.60;;;;;;;3.46;65.83;100837.00;112414;1191;61235;-23
2021/10/08 06:40:52;;;;;;;10.70;3.60;;;;;;;4.36;63.21;100840.45;112524;1190;61690;-23
2021/10/08 06:43:22;;;;;;;10.50;3.90;;;;;;;4.69;61.83;100840.05;112542;1190;75327;-23
2021/10/08 06:46:02;;;;;;;9.20;4.60;;;;;;;4.71;60.93;100840.85;112515;1190;74185;-23
2021/10/08 06:48:31;;;;;;;13.50;5.40;;;;;;;4.58;60.85;100836.73;112490;1190;73972;-22
2021/10/08 06:51:00;;;;;;;10.10;5.00;;;;;;;4.57;60.69;100840.23;112523;1190;60798;-21
2021/10/08 06:53:29;;;;;;;9.40;5.50;;;;;;;4.52;60.98;100837.24;112534;1190;60988;-21
2021/10/08 06:55:58;;;;;;;9.40;4.00;;;;;;;4.54;61.45;100830.33;112468;1190;74172;-21
2021/10/08 06:58:47;;;;;;;5.00;3.00;;;;;;;4.64;61.18;100833.30;112440;1190;74703;-22
2021/10/08 07:01:15;;;;;;;11.10;5.80;;;;;;;4.74;60.89;100838.02;112518;1190;74189;-22
2021/10/08 07:03:45;;;;;;;12.30;5.00;;;;;;;4.86;61.32;100834.23;112464;1190;60815;-23
2021/10/08 07:06:14;;;;;;;11.90;5.60;;;;;;;5.00;60.67;100837.27;112464;1190;60886;-23
2021/10/08 07:08:43;;;;;;;8.90;4.90;;;;;;;5.13;60.17;100837.58;112358;1192;74425;-23
2021/10/08 07:11:11;;;;;;;13.90;5.00;;;;;;;5.29;59.51;100835.53;112495;1190;74700;-23
2021/10/08 07:13:40;;;;;;;6.00;3.70;;;;;;;5.49;58.43;100836.98;112415;1191;74006;-24
2021/10/08 07:16:08;;;;;;;15.90;6.10;;;;;;;5.40;58.18;100838.33;112497;1190;60806;-24
2021/10/08 07:18:49;;;;;;;8.60;4.70;;;;;;;5.64;58.02;100844.44;112562;1190;60787;-23
2021/10/08 07:21:17;;;;;;;10.90;5.10;;;;;;;5.80;57.92;100841.52;112448;1193;74257;-23
2021/10/08 07:23:47;;;;;;;7.00;3.50;;;;;;;5.85;56.75;100841.18;112481;1190;73396;-22
2021/10/08 07:26:16;;;;;;;21.60;7.90;;;;;;;6.00;56.60;100840.01;112476;1192;72827;-22
2021/10/08 07:28:45;;;;;;;10.80;4.60;;;;;;;6.14;56.50;100836.98;112517;1190;60985;-22
2021/10/08 07:31:13;;;;;;;7.30;4.10;;;;;;;6.27;55.25;100832.72;112526;1190;61667;-22
2021/10/08 07:33:42;;;;;;;8.20;3.80;;;;;;;6.41;55.65;100832.59;112398;1190;75451;-22
2021/10/08 07:36:10;;;;;;;10.70;5.00;;;;;;;6.65;55.01;100830.52;112495;1190;74667;-22
2021/10/08 07:38:38;;;;;;;6.20;3.50;;;;;;;6.85;53.30;100830.13;112490;1190;73758;-22
2021/10/08 07:41:07;;;;;;;6.50;2.70;;;;;;;6.94;52.71;100831.53;112503;1190;60819;-22
2021/10/08 07:43:40;;;;;;;10.00;3.60;;;;;;;7.10;51.94;100835.25;112461;1190;61665;-22
2021/10/08 07:46:09;;;;;;;64.60;6.60;;;;;;;7.32;51.93;100836.63;112467;1190;74187;-22
2021/10/08 07:48:37;;;;;;;11.50;4.60;;;;;;;7.46;50.65;100834.54;112560;1190;75831;-22
2021/10/08 07:51:10;;;;;;;6.70;2.30;;;;;;;7.66;50.31;100833.40;112421;1193;73046;-22
2021/10/08 07:53:38;;;;;;;6.90;3.20;;;;;;;7.84;48.92;100824.35;112442;1190;61295;-22
2021/10/08 07:56:07;;;;;;;4.60;1.90;;;;;;;8.05;48.68;100826.08;112525;1190;60776;-22
2021/10/08 07:58:35;;;;;;;3.70;1.90;;;;;;;8.24;48.34;100830.79;112498;1190;73762;-22
2021/10/08 08:01:05;;;;;;;7.30;2.40;;;;;;;8.39;47.37;100824.43;112576;1190;75617;-22
2021/10/08 08:03:33;;;;;;;12.40;3.00;;;;;;;8.57;47.36;100824.59;112465;1190;74010;-22
2021/10/08 08:06:02;;;;;;;3.30;2.10;;;;;;;8.76;46.18;100823.90;112570;1183;61622;-22
2021/10/08 08:08:30;;;;;;;8.70;2.70;;;;;;;9.04;45.96;100825.54;112515;1190;60802;-22
2021/10/08 08:10:58;;;;;;;5.50;2.80;;;;;;;9.30;45.15;100828.52;112500;1190;75555;-22
2021/10/08 08:13:27;;;;;;;6.60;2.50;;;;;;;9.62;44.96;100830.42;112410;1192;74456;-21
2021/10/08 08:15:56;;;;;;;6.50;2.60;;;;;;;9.84;43.58;100827.97;112435;1190;73020;-21
2021/10/08 08:18:24;;;;;;;3.10;1.90;;;;;;;10.08;42.80;100827.84;112439;1190;61750;-22
2021/10/08 08:20:52;;;;;;;5.80;2.00;;;;;;;10.19;41.95;100826.73;112508;1190;60798;-21
2021/10/08 08:23:21;;;;;;;5.10;2.30;;;;;;;10.16;41.41;100824.30;112524;1190;75533;-22
2021/10/08 08:25:51;;;;;;;4.10;2.20;;;;;;;10.23;41.70;100826.89;112378;1190;75648;-22
2021/10/08 08:28:21;;;;;;;3.80;1.60;;;;;;;10.52;41.47;100822.98;112394;1192;73008;-22
2021/10/08 08:30:49;;;;;;;4.40;2.40;;;;;;;10.74;41.35;100823.21;112377;1192;60879;-23
2021/10/08 08:33:18;;;;;;;24.50;3.60;;;;;;;10.98;41.05;100828.16;112410;1190;60817;-22
2021/10/08 08:35:46;;;;;;;7.00;2.40;;;;;;;11.11;39.88;100829.04;112430;1190;75235;-22
2021/10/08 08:38:14;;;;;;;5.20;2.60;;;;;;;11.19;39.72;100823.39;112460;1190;75547;-22
2021/10/08 08:40:43;;;;;;;8.20;3.20;;;;;;;11.25;39.14;100824.42;112523;1190;72560;-22
2021/10/08 08:43:13;;;;;;;6.70;3.60;;;;;;;11.29;38.79;100820.20;112429;1190;60872;-22
2021/10/08 08:45:42;;;;;;;10.00;4.60;;;;;;;11.32;38.66;100819.85;112499;1190;60885;-22
2021/10/08 08:48:13;;;;;;;4.10;2.20;;;;;;;11.47;38.39;100816.74;112481;1190;75111;-22
2021/10/08 08:50:44;;;;;;;4.60;2.80;;;;;;;11.41;37.78;100815.20;112549;1190;75724;-22
2021/10/08 08:53:13;;;;;;;4.40;2.60;;;;;;;11.17;37.84;100810.80;112446;1190;74128;-22
2021/10/08 08:55:44;;;;;;;8.30;3.20;;;;;;;11.63;37.59;100806.30;112443;1190;60892;-22
2021/10/08 08:58:12;;;;;;;6.00;2.40;;;;;;;11.95;37.14;100805.84;112551;1190;60802;-22
2021/10/08 09:00:44;;;;;;;3.40;1.90;;;;;;;12.13;36.18;100808.61;112454;1190;75327;-22
2021/10/08 09:03:16;;;;;;;2.80;1.50;;;;;;;12.22;35.19;100805.63;112490;1190;75683;-22
2021/10/08 09:08:13;;;;;;;4.80;2.00;;;;;;;12.76;35.14;100799.56;110538;1209;599574;-21
2021/10/08 09:10:44;;;;;;;1.20;1.00;;;;;;;13.01;34.75;100800.96;111781;1196;61828;-21
2021/10/08 09:13:16;;;;;;;3.00;1.30;;;;;;;12.65;33.72;100796.05;111886;1196;60860;-21
2021/10/08 09:15:56;;;;;;;6.60;2.10;;;;;;;12.49;34.04;100795.15;111653;1196;72555;-21
2021/10/08 09:18:29;;;;;;;8.40;3.10;;;;;;;12.59;34.89;100790.16;111778;1196;74499;-21
2021/10/08 09:21:08;;;;;;;4.40;1.90;;;;;;;13.05;34.25;100784.70;111645;1196;72633;-22
2021/10/08 09:23:49;;;;;;;2.40;1.50;;;;;;;13.48;33.45;100785.59;111676;1197;60812;-21
2021/10/08 09:26:27;;;;;;;2.50;1.60;;;;;;;13.29;33.25;100781.04;111767;1196;61699;-21
2021/10/08 09:29:00;;;;;;;2.70;1.50;;;;;;;13.06;33.17;100781.48;111513;1195;73784;-21
2021/10/08 09:31:36;;;;;;;1.50;1.10;;;;;;;13.16;32.49;100779.30;111491;1198;74662;-23
2021/10/08 09:34:18;;;;;;;4.30;1.20;;;;;;;13.09;32.19;100777.27;111858;1195;71390;-21
2021/10/08 09:36:52;;;;;;;2.90;2.00;;;;;;;13.04;33.10;100771.31;111640;1196;61749;-21
2021/10/08 09:39:21;;;;;;;4.00;1.70;;;;;;;13.26;33.35;100772.20;111513;1198;60876;-21
2021/10/08 09:41:56;;;;;;;4.30;2.30;;;;;;;13.41;32.87;100776.98;111659;1198;71860;-21
2021/10/08 09:44:26;;;;;;;3.00;1.70;;;;;;;12.87;33.23;100767.73;111531;1198;74689;-24
2021/10/08 09:47:13;;;;;;;3.90;2.10;;;;;;;12.52;33.67;100767.60;111607;1195;74106;-21
2021/10/08 09:49:43;;;;;;;4.30;1.80;;;;;;;12.65;33.71;100767.19;111646;1195;61776;-21
2021/10/08 09:52:25;;;;;;;6.70;1.70;;;;;;;13.25;33.08;100769.10;111665;1196;60790;-21
2021/10/08 09:54:57;;;;;;;6.60;1.80;;;;;;;13.56;33.04;100765.04;111656;1196;73513;-21
2021/10/08 09:57:26;;;;;;;4.80;1.60;;;;;;;14.05;32.36;100764.33;111709;1196;75653;-21
2021/10/08 09:59:55;;;;;;;3.70;1.80;;;;;;;14.08;31.80;100764.13;111656;1197;73127;-23
2021/10/08 10:02:24;;;;;;;9.40;2.30;;;;;;;13.77;31.83;100757.52;111814;1196;61475;-25
2021/10/08 10:04:59;;;;;;;2.30;1.70;;;;;;;13.80;31.82;100764.63;111509;1197;60835;-23
2021/10/08 10:07:29;;;;;;;2.60;1.80;;;;;;;13.57;31.77;100759.70;112228;1192;74034;-23
2021/10/08 10:09:58;;;;;;;15.70;2.30;;;;;;;13.65;31.65;100754.80;111956;1195;74676;-23
2021/10/08 10:12:35;;;;;;;2.70;1.90;;;;;;;13.65;32.15;100754.48;112144;1192;74164;-23
2021/10/08 10:15:04;;;;;;;2.10;1.50;;;;;;;12.94;32.74;100752.07;112098;1192;61992;-23
2021/10/08 10:17:34;;;;;;;2.60;1.50;;;;;;;13.16;33.67;100754.86;112131;1192;60958;-23
2021/10/08 10:20:03;;;;;;;4.30;2.30;;;;;;;13.36;32.53;100750.45;112247;1192;73313;-23
2021/10/08 10:22:32;;;;;;;3.20;1.80;;;;;;;13.63;32.69;100752.32;112084;1192;74627;-23
2021/10/08 10:25:00;;;;;;;7.20;3.50;;;;;;;13.23;32.56;100735.91;111965;1192;73368;-23
2021/10/08 10:27:30;;;;;;;3.70;1.70;;;;;;;13.57;32.31;100741.73;112009;1193;60804;-23
2021/10/08 10:29:58;;;;;;;5.10;1.40;;;;;;;13.97;31.87;100738.05;112243;1192;60825;-23
2021/10/08 10:32:27;;;;;;;3.10;1.60;;;;;;;14.23;31.55;100740.56;112136;1193;72618;-23
2021/10/08 10:34:56;;;;;;;3.30;1.90;;;;;;;14.20;31.02;100737.16;112097;1193;75986;-23
2021/10/08 10:37:42;;;;;;;3.70;1.80;;;;;;;13.81;31.30;100735.12;112282;1192;74088;-21
2021/10/08 10:40:18;;;;;;;51.40;5.80;;;;;;;13.82;31.67;100730.45;111953;1193;61481;-21
2021/10/08 10:43:06;;;;;;;3.50;1.40;;;;;;;13.38;32.29;100726.44;112139;1193;61679;-22
2021/10/08 10:45:35;;;;;;;2.10;1.50;;;;;;;14.07;31.42;100723.38;112225;1193;73598;-22
2021/10/08 10:48:25;;;;;;;4.70;1.50;;;;;;;13.99;30.92;100731.21;112230;1192;74806;-22
2021/10/08 10:51:20;;;;;;;1.70;1.20;;;;;;;13.94;31.33;100725.97;112019;1193;73147;-22
2021/10/08 10:53:52;;;;;;;5.50;1.80;;;;;;;14.04;31.51;100727.09;112101;1194;61415;-22
2021/10/08 10:56:40;;;;;;;2.10;1.30;;;;;;;14.30;31.33;100726.15;112025;1195;61637;-22
2021/10/08 10:59:28;;;;;;;6.00;1.40;;;;;;;14.24;32.01;100726.36;112120;1193;74306;-22
2021/10/08 11:02:11;;;;;;;4.30;2.20;;;;;;;14.51;31.14;100717.33;112165;1193;73672;-22
2021/10/08 11:04:48;;;;;;;2.20;1.50;;;;;;;14.40;31.33;100718.26;112238;1192;73977;-21
2021/10/08 11:07:17;;;;;;;5.80;2.40;;;;;;;14.12;31.33;100724.27;112162;1192;60995;-22
2021/10/08 11:10:04;;;;;;;4.70;2.60;;;;;;;13.48;32.48;100717.70;111920;1195;61673;-22
2021/10/08 11:12:40;;;;;;;4.20;2.70;;;;;;;13.81;32.03;100716.58;112256;1192;74330;-22
2021/10/08 11:15:15;;;;;;;3.70;2.50;;;;;;;13.50;32.25;100708.88;112111;1193;75665;-22
2021/10/08 11:17:52;;;;;;;3.50;2.10;;;;;;;13.08;32.94;100705.89;112112;1193;72818;-22
2021/10/08 11:20:31;;;;;;;6.20;2.30;;;;;;;13.09;32.94;100713.11;112075;1193;62280;-22
2021/10/08 11:23:04;;;;;;;4.30;2.20;;;;;;;13.72;32.58;100710.69;112035;1195;60827;-22
2021/10/08 11:26:05;;;;;;;6.40;3.60;;;;;;;13.45;32.85;100702.20;111963;1193;74564;-22
2021/10/08 11:28:42;;;;;;;8.90;4.00;;;;;;;12.90;34.35;100703.05;111733;1197;75583;-22
2021/10/08 11:31:14;;;;;;;4.30;3.20;;;;;;;13.39;33.65;100698.41;111510;1197;72779;-22
2021/10/08 11:33:47;;;;;;;8.80;3.30;;;;;;;13.19;33.75;100697.80;111550;1198;60781;-22